createdAt,value
2018-03-22T00:00:33.686Z,6.6
2018-03-22T00:02:06.132Z,6.3
2018-03-22T00:03:30.987Z,6.1
2018-03-22T00:04:53.350Z,5.9
2018-03-22T00:06:20.757Z,5.6
2018-03-22T00:07:40.613Z,4
2018-03-22T00:09:00.420Z,6.2
2018-03-22T00:10:22.744Z,5.4
2018-03-22T00:11:47.686Z,5.1
2018-03-22T00:13:07.505Z,5.2
2018-03-22T00:14:32.363Z,4.8
2018-03-22T00:15:52.178Z,5.8
2018-03-22T00:17:12.064Z,5.8
2018-03-22T00:18:36.974Z,5.6
2018-03-22T00:19:56.773Z,5.8
2018-03-22T00:21:24.150Z,5.9
2018-03-22T00:22:44.016Z,5.9
2018-03-22T00:24:08.945Z,6
2018-03-22T00:25:36.335Z,5.8
2018-03-22T00:26:58.686Z,6.1
2018-03-22T00:28:18.567Z,6.1
2018-03-22T00:29:38.401Z,6.1
2018-03-22T00:31:00.731Z,6.1
2018-03-22T00:32:20.535Z,6
2018-03-22T00:33:50.522Z,5.9
2018-03-22T00:35:15.422Z,6.5
2018-03-22T00:36:35.231Z,6.5
2018-03-22T00:37:57.559Z,5.1
2018-03-22T00:39:22.420Z,5.3
2018-03-22T00:40:49.836Z,5.7
2018-03-22T00:42:12.207Z,5.4
2018-03-22T00:43:34.543Z,5.2
2018-03-22T00:45:04.463Z,5.9
2018-03-22T00:46:24.303Z,5.8
2018-03-22T00:47:44.116Z,5.7
2018-03-22T00:49:21.635Z,5.7
2018-03-22T00:50:41.452Z,5.8
2018-03-22T00:52:13.909Z,5.8
2018-03-22T00:53:33.732Z,5.8
2018-03-22T00:54:56.110Z,5.9
2018-03-22T00:56:38.723Z,5.8
2018-03-22T00:58:18.832Z,5.7
2018-03-22T00:59:38.660Z,5.6
2018-03-22T01:01:21.265Z,5.6
2018-03-22T01:02:41.104Z,5.6
2018-03-22T01:04:00.890Z,5.6
2018-03-22T01:05:23.258Z,5.6
2018-03-22T01:06:43.085Z,4.6
2018-03-22T01:08:05.420Z,6.6
2018-03-22T01:09:25.232Z,6.5
2018-03-22T01:10:45.073Z,6.5
2018-03-22T01:12:04.863Z,6.7
2018-03-22T01:13:32.298Z,6.6
2018-03-22T01:14:52.092Z,6.6
2018-03-22T01:16:29.616Z,6.6
2018-03-22T01:18:04.596Z,6.7
2018-03-22T01:19:29.454Z,6.6
2018-03-22T01:20:59.370Z,6.1
2018-03-22T01:22:24.269Z,6.8
2018-03-22T01:23:46.629Z,6.1
2018-03-22T01:25:06.474Z,5.9
2018-03-22T01:26:26.264Z,6
2018-03-22T01:28:01.227Z,6
2018-03-22T01:29:23.601Z,5.9
2018-03-22T01:30:53.594Z,6.1
2018-03-22T01:32:13.413Z,5.9
2018-03-22T01:33:33.285Z,6.4
2018-03-22T01:34:55.623Z,6.4
2018-03-22T01:36:35.656Z,6.3
2018-03-22T01:38:10.633Z,6.5
2018-03-22T01:39:38.095Z,6.5
2018-03-22T01:41:00.473Z,6.6
2018-03-22T01:42:22.850Z,6.4
2018-03-22T01:43:47.774Z,6.3
2018-03-22T01:45:07.603Z,6.8
2018-03-22T01:46:30.001Z,6.8
2018-03-22T01:47:49.805Z,6.8
2018-03-22T01:49:24.834Z,6.9
2018-03-22T01:50:47.298Z,6.8
2018-03-22T01:52:12.216Z,6.9
2018-03-22T01:53:32.012Z,6.2
2018-03-22T01:54:54.345Z,6.4
2018-03-22T01:56:19.196Z,6.1
2018-03-22T01:57:46.585Z,6
2018-03-22T01:59:21.550Z,6.2
2018-03-22T02:00:41.356Z,5.8
2018-03-22T02:02:03.693Z,5.9
2018-03-22T02:03:23.586Z,5.9
2018-03-22T02:04:45.912Z,6.4
2018-03-22T02:06:10.773Z,6.3
2018-03-22T02:07:43.304Z,6.2
2018-03-22T02:09:05.640Z,6.2
2018-03-22T02:10:25.436Z,5.6
2018-03-22T02:11:45.231Z,6.5
2018-03-22T02:13:05.035Z,5.6
2018-03-22T02:14:27.392Z,6.5
2018-03-22T02:15:54.765Z,6.7
2018-03-22T02:17:14.574Z,4.6
2018-03-22T02:18:34.363Z,7.3
2018-03-22T02:19:56.685Z,7.3
2018-03-22T02:21:19.014Z,7.1
2018-03-22T02:22:38.860Z,7.1
2018-03-22T02:24:01.190Z,7.3
2018-03-22T02:25:23.577Z,7.2
2018-03-22T02:26:43.426Z,7.2
2018-03-22T02:28:10.801Z,7.3
2018-03-22T02:29:35.718Z,7.3
2018-03-22T02:30:55.509Z,7.3
2018-03-22T02:32:15.308Z,7.1
2018-03-22T02:33:45.253Z,7.3
2018-03-22T02:35:12.677Z,7.2
2018-03-22T02:36:32.493Z,7.2
2018-03-22T02:37:54.831Z,7.3
2018-03-22T02:39:14.642Z,7.4
2018-03-22T02:40:34.443Z,7.3
2018-03-22T02:41:56.774Z,7.5
2018-03-22T02:43:19.115Z,7.5
2018-03-22T02:44:38.940Z,7.4
2018-03-22T02:46:01.269Z,7.5
2018-03-22T02:47:21.078Z,7.5
2018-03-22T02:48:40.894Z,7.5
2018-03-22T02:50:03.315Z,7.5
2018-03-22T02:51:23.139Z,7.6
2018-03-22T02:52:42.965Z,7.7
2018-03-22T02:54:05.315Z,7.5
2018-03-22T02:55:25.108Z,7.2
2018-03-22T02:56:49.967Z,7.5
2018-03-22T02:58:09.772Z,7.2
2018-03-22T02:59:29.572Z,7.2
2018-03-22T03:00:49.425Z,7.4
2018-03-22T03:02:09.228Z,7.4
2018-03-22T03:03:29.081Z,7.3
2018-03-22T03:04:48.881Z,7.3
2018-03-22T03:06:08.687Z,7.3
2018-03-22T03:07:36.093Z,7.3
2018-03-22T03:08:55.934Z,7.6
2018-03-22T03:10:18.332Z,7.4
2018-03-22T03:11:38.159Z,7.4
2018-03-22T03:12:58.038Z,7.3
2018-03-22T03:14:17.870Z,7.3
2018-03-22T03:15:42.754Z,7.3
2018-03-22T03:17:07.668Z,7.5
2018-03-22T03:18:27.491Z,7.5
2018-03-22T03:19:49.828Z,7.4
2018-03-22T03:21:22.287Z,7.4
2018-03-22T03:22:42.104Z,7.4
2018-03-22T03:24:04.483Z,7.5
2018-03-22T03:25:29.368Z,7.6
2018-03-22T03:27:01.852Z,7.6
2018-03-22T03:28:26.714Z,7.6
2018-03-22T03:29:49.033Z,7.6
2018-03-22T03:31:11.368Z,7.6
2018-03-22T03:32:31.197Z,7.5
2018-03-22T03:33:58.592Z,7.6
2018-03-22T03:35:20.983Z,7.3
2018-03-22T03:36:40.819Z,7.5
2018-03-22T03:38:03.169Z,7.7
2018-03-22T03:39:23.036Z,7.6
2018-03-22T03:40:42.916Z,7.7
2018-03-22T03:42:07.795Z,7.7
2018-03-22T03:43:27.622Z,7.7
2018-03-22T03:44:49.940Z,7.7
2018-03-22T03:46:09.747Z,7.5
2018-03-22T03:47:32.135Z,7.7
2018-03-22T03:48:54.478Z,7.5
2018-03-22T03:50:14.281Z,7.3
2018-03-22T03:51:36.602Z,7.5
2018-03-22T03:52:56.408Z,7.6
2018-03-22T03:54:21.257Z,7.4
2018-03-22T03:55:51.196Z,7.5
2018-03-22T03:57:23.656Z,7.3
2018-03-22T03:58:51.081Z,7.4
2018-03-22T04:00:13.410Z,7.1
2018-03-22T04:01:35.755Z,7.2
2018-03-22T04:02:58.115Z,7.1
2018-03-22T04:04:17.939Z,6.6
2018-03-22T04:05:40.308Z,7
2018-03-22T04:07:05.177Z,7.1
2018-03-22T04:08:24.974Z,6.8
2018-03-22T04:09:47.372Z,6.6
2018-03-22T04:11:12.295Z,7.2
2018-03-22T04:12:32.126Z,7.6
2018-03-22T04:13:51.951Z,7.5
2018-03-22T04:15:11.809Z,7.4
2018-03-22T04:16:31.639Z,7.5
2018-03-22T04:17:59.044Z,7.6
2018-03-22T04:19:23.888Z,7.4
2018-03-22T04:20:43.730Z,7.4
2018-03-22T04:22:23.788Z,7.3
2018-03-22T04:23:53.711Z,7.2
2018-03-22T04:25:16.032Z,7.2
2018-03-22T04:26:38.365Z,7
2018-03-22T04:28:03.224Z,7
2018-03-22T04:29:23.029Z,7.3
2018-03-22T04:30:45.400Z,7.5
2018-03-22T04:32:12.862Z,7.6
2018-03-22T04:33:42.856Z,7.3
2018-03-22T04:35:05.187Z,7.6
2018-03-22T04:36:25.036Z,7.2
2018-03-22T04:38:00.024Z,7.4
2018-03-22T04:39:27.491Z,7.4
2018-03-22T04:40:59.936Z,7.4
2018-03-22T04:42:19.722Z,7.5
2018-03-22T04:43:39.515Z,7.5
2018-03-22T04:45:01.856Z,7.4
2018-03-22T04:46:24.234Z,7.5
2018-03-22T04:47:44.029Z,7.6
2018-03-22T04:49:06.356Z,7.6
2018-03-22T04:50:26.159Z,7.6
2018-03-22T04:51:51.027Z,7.4
2018-03-22T04:53:26.024Z,7.3
2018-03-22T04:54:48.370Z,7.3
2018-03-22T04:56:10.688Z,7.4
2018-03-22T04:57:30.529Z,7.4
2018-03-22T04:58:52.878Z,7.4
2018-03-22T05:00:15.210Z,7.4
2018-03-22T05:01:37.654Z,7.4
2018-03-22T05:03:02.548Z,7.3
2018-03-22T05:04:29.991Z,7
2018-03-22T05:05:54.845Z,7.3
2018-03-22T05:07:27.369Z,7.3
2018-03-22T05:08:47.191Z,7.3
2018-03-22T05:10:07.064Z,6.8
2018-03-22T05:11:29.394Z,7.2
2018-03-22T05:12:51.725Z,7.1
2018-03-22T05:14:14.118Z,7.2
2018-03-22T05:15:33.917Z,7.1
2018-03-22T05:16:56.282Z,7.1
2018-03-22T05:18:18.602Z,6.9
2018-03-22T05:19:38.396Z,6.9
2018-03-22T05:21:00.731Z,6.8
2018-03-22T05:22:28.109Z,7.1
2018-03-22T05:23:52.974Z,7.1
2018-03-22T05:25:12.812Z,7
2018-03-22T05:26:32.676Z,7
2018-03-22T05:27:57.547Z,7
2018-03-22T05:29:30.011Z,7.2
2018-03-22T05:30:52.356Z,7.1
2018-03-22T05:32:22.297Z,6.1
2018-03-22T05:33:42.124Z,6
2018-03-22T05:35:12.103Z,6.2
2018-03-22T05:36:34.421Z,6.2
2018-03-22T05:37:54.212Z,6.3
2018-03-22T05:39:14.029Z,6.1
2018-03-22T05:40:36.355Z,6.3
2018-03-22T05:42:11.340Z,6.3
2018-03-22T05:43:33.716Z,6.3
2018-03-22T05:45:01.128Z,6.3
2018-03-22T05:46:28.536Z,6.3
2018-03-22T05:47:50.916Z,6.5
2018-03-22T05:49:18.289Z,6.3
2018-03-22T05:50:38.083Z,6.4
2018-03-22T05:52:00.414Z,6.4
2018-03-22T05:53:27.806Z,6.3
2018-03-22T05:54:52.677Z,6.6
2018-03-22T05:56:12.535Z,6.6
2018-03-22T05:57:32.368Z,6.7
2018-03-22T05:58:54.697Z,6.6
2018-03-22T06:00:22.120Z,6.6
2018-03-22T06:01:41.960Z,6.4
2018-03-22T06:03:09.446Z,6.5
2018-03-22T06:04:29.289Z,6.2
2018-03-22T06:05:49.087Z,6.5
2018-03-22T06:07:08.915Z,6.5
2018-03-22T06:08:31.245Z,6.6
2018-03-22T06:09:51.092Z,6.6
2018-03-22T06:11:13.460Z,6.7
2018-03-22T06:12:35.848Z,6.5
2018-03-22T06:14:08.337Z,6.4
2018-03-22T06:15:30.706Z,6.4
2018-03-22T06:16:58.097Z,7.4
2018-03-22T06:18:20.486Z,7.2
2018-03-22T06:19:45.339Z,7.2
2018-03-22T06:21:07.706Z,7.4
2018-03-22T06:22:30.078Z,7.4
2018-03-22T06:23:49.873Z,7.3
2018-03-22T06:25:14.757Z,7.3
2018-03-22T06:26:39.655Z,7.4
2018-03-22T06:27:59.492Z,7.4
2018-03-22T06:29:21.850Z,7.4
2018-03-22T06:30:41.682Z,7.2
2018-03-22T06:32:09.091Z,7.3
2018-03-22T06:33:31.416Z,7.3
2018-03-22T06:34:51.241Z,7.3
2018-03-22T06:36:16.106Z,7.4
2018-03-22T06:37:46.058Z,7.3
2018-03-22T06:39:10.972Z,7.8
2018-03-22T06:40:30.804Z,7.4
2018-03-22T06:42:03.261Z,7.4
2018-03-22T06:43:23.064Z,7.3
2018-03-22T06:44:42.858Z,7.3
2018-03-22T06:46:02.653Z,7.4
2018-03-22T06:47:24.979Z,7.4
2018-03-22T06:48:44.791Z,7.2
2018-03-22T06:50:09.652Z,7.3
2018-03-22T06:51:29.447Z,7.4
2018-03-22T06:52:49.244Z,7.4
2018-03-22T06:54:16.710Z,7.2
2018-03-22T06:55:44.119Z,7.4
2018-03-22T06:57:06.460Z,7.3
2018-03-22T06:58:28.830Z,7.3
2018-03-22T06:59:48.685Z,7.1
2018-03-22T07:01:11.043Z,7.2
2018-03-22T07:02:35.915Z,7.3
2018-03-22T07:03:55.709Z,7.4
2018-03-22T07:05:20.600Z,7.3
2018-03-22T07:06:40.400Z,7.5
2018-03-22T07:08:00.199Z,7.4
2018-03-22T07:09:22.570Z,7.3
2018-03-22T07:10:42.377Z,7.7
2018-03-22T07:12:02.200Z,7.5
2018-03-22T07:13:24.577Z,7.3
2018-03-22T07:14:54.491Z,7.5
2018-03-22T07:16:14.293Z,7.4
2018-03-22T07:17:34.132Z,7.6
2018-03-22T07:18:53.927Z,7.3
2018-03-22T07:20:13.774Z,7.3
2018-03-22T07:21:33.560Z,7.3
2018-03-22T07:22:55.939Z,7.3
2018-03-22T07:24:15.750Z,7.3
2018-03-22T07:25:35.553Z,7.4
2018-03-22T07:26:57.932Z,7.4
2018-03-22T07:28:17.727Z,7.6
2018-03-22T07:29:40.097Z,7.3
2018-03-22T07:30:59.951Z,7.7
2018-03-22T07:32:24.814Z,7.9
2018-03-22T07:33:44.608Z,7.7
2018-03-22T07:35:07.010Z,7.8
2018-03-22T07:36:29.341Z,7.7
2018-03-22T07:37:51.734Z,7.8
2018-03-22T07:39:11.598Z,7.8
2018-03-22T07:40:31.481Z,7.7
2018-03-22T07:41:51.343Z,7.9
2018-03-22T07:43:13.661Z,7.4
2018-03-22T07:44:33.507Z,7.4
2018-03-22T07:46:03.448Z,7.9
2018-03-22T07:47:25.772Z,7.9
2018-03-22T07:48:48.093Z,7.9
2018-03-22T07:50:20.572Z,7.2
2018-03-22T07:51:40.416Z,7.3
2018-03-22T07:53:05.281Z,7.7
2018-03-22T07:54:25.175Z,7.9
2018-03-22T07:55:44.968Z,7.9
2018-03-22T07:57:04.799Z,7.9
2018-03-22T07:58:24.595Z,7.9
2018-03-22T07:59:44.417Z,8
2018-03-22T08:01:21.952Z,8
2018-03-22T08:02:41.803Z,8
2018-03-22T08:04:01.645Z,7.9
2018-03-22T08:05:24.006Z,8.2
2018-03-22T08:06:43.797Z,8.3
2018-03-22T08:08:03.592Z,8.3
2018-03-22T08:09:25.923Z,8.2
2018-03-22T08:10:48.299Z,8.1
2018-03-22T08:12:13.150Z,8.1
2018-03-22T08:13:32.938Z,8.2
2018-03-22T08:14:52.742Z,7.8
2018-03-22T08:16:12.537Z,7.9
2018-03-22T08:17:37.423Z,7.9
2018-03-22T08:19:02.303Z,7.9
2018-03-22T08:20:24.628Z,7.7
2018-03-22T08:21:44.467Z,7.8
2018-03-22T08:23:04.311Z,7.9
2018-03-22T08:24:29.159Z,7.8
2018-03-22T08:25:51.555Z,7.8
2018-03-22T08:27:13.884Z,8.2
2018-03-22T08:28:33.683Z,8.2
2018-03-22T08:30:01.110Z,7.6
2018-03-22T08:31:20.899Z,7.8
2018-03-22T08:32:40.755Z,8
2018-03-22T08:34:05.640Z,7.9
2018-03-22T08:35:27.989Z,8.1
2018-03-22T08:36:47.812Z,7.9
2018-03-22T08:38:07.658Z,7.9
2018-03-22T08:39:30.014Z,7.9
2018-03-22T08:40:52.353Z,8
2018-03-22T08:42:19.780Z,7.7
2018-03-22T08:43:39.600Z,8
2018-03-22T08:44:59.396Z,7.8
2018-03-22T08:46:21.739Z,8
2018-03-22T08:47:44.064Z,7.8
2018-03-22T08:49:06.442Z,7.9
2018-03-22T08:50:28.795Z,7.8
2018-03-22T08:51:48.593Z,7.6
2018-03-22T08:53:08.386Z,7.8
2018-03-22T08:54:28.187Z,7.4
2018-03-22T08:55:55.630Z,7.6
2018-03-22T08:57:15.423Z,7.7
2018-03-22T08:58:37.796Z,7.5
2018-03-22T08:59:57.592Z,7.7
2018-03-22T09:01:17.414Z,7.8
2018-03-22T09:02:37.225Z,7.7
2018-03-22T09:03:59.549Z,7.7
2018-03-22T09:05:21.880Z,7.7
2018-03-22T09:06:49.307Z,7.9
2018-03-22T09:08:09.156Z,7.6
2018-03-22T09:09:28.953Z,7.4
2018-03-22T09:10:51.421Z,7.3
2018-03-22T09:12:11.248Z,7.7
2018-03-22T09:13:43.742Z,7.7
2018-03-22T09:15:06.105Z,7.7
2018-03-22T09:16:25.985Z,7.5
2018-03-22T09:17:45.856Z,7.7
2018-03-22T09:19:08.185Z,7.9
2018-03-22T09:20:30.504Z,7.7
2018-03-22T09:21:57.903Z,7.7
2018-03-22T09:23:17.753Z,7.8
2018-03-22T09:24:37.563Z,7.9
2018-03-22T09:26:02.409Z,8
2018-03-22T09:27:22.207Z,8.1
2018-03-22T09:28:42.048Z,8.1
2018-03-22T09:30:01.901Z,8.1
2018-03-22T09:31:29.298Z,7.7
2018-03-22T09:32:49.103Z,7.4
2018-03-22T09:34:08.900Z,7.8
2018-03-22T09:35:28.704Z,7.7
2018-03-22T09:36:48.494Z,7.9
2018-03-22T09:38:15.899Z,8
2018-03-22T09:39:40.785Z,7.8
2018-03-22T09:41:00.587Z,7.8
2018-03-22T09:42:23.019Z,7.8
2018-03-22T09:43:42.856Z,7.4
2018-03-22T09:45:02.649Z,7.8
2018-03-22T09:46:22.449Z,7.4
2018-03-22T09:47:44.811Z,7.5
2018-03-22T09:49:04.607Z,7.7
2018-03-22T09:50:24.407Z,7.4
2018-03-22T09:51:44.255Z,7.2
2018-03-22T09:53:06.621Z,7.7
2018-03-22T09:54:28.962Z,7.9
2018-03-22T09:56:09.067Z,8.2
2018-03-22T09:57:31.413Z,8.1
2018-03-22T09:58:56.340Z,8.1
2018-03-22T10:00:18.684Z,7.9
2018-03-22T10:01:38.480Z,7.8
2018-03-22T10:02:58.322Z,8
2018-03-22T10:04:20.657Z,8.1
2018-03-22T10:05:43.016Z,8.2
2018-03-22T10:07:02.832Z,8.1
2018-03-22T10:08:22.683Z,7.8
2018-03-22T10:09:45.012Z,7.7
2018-03-22T10:11:09.913Z,7.8
2018-03-22T10:12:29.750Z,8.1
2018-03-22T10:13:52.085Z,8.1
2018-03-22T10:15:27.067Z,8.2
2018-03-22T10:16:51.935Z,8.2
2018-03-22T10:18:11.723Z,7.9
2018-03-22T10:19:36.632Z,7.7
2018-03-22T10:21:09.140Z,7.9
2018-03-22T10:22:31.498Z,8
2018-03-22T10:23:51.322Z,8.1
2018-03-22T10:25:11.144Z,8.1
2018-03-22T10:26:41.086Z,8.2
2018-03-22T10:28:06.005Z,8.4
2018-03-22T10:29:25.828Z,8.2
2018-03-22T10:30:45.651Z,8.1
2018-03-22T10:32:13.033Z,8.2
2018-03-22T10:33:32.866Z,8.3
2018-03-22T10:34:55.210Z,8.4
2018-03-22T10:36:17.588Z,8.4
2018-03-22T10:37:39.904Z,8.4
2018-03-22T10:39:04.766Z,8.5
2018-03-22T10:40:27.133Z,8.5
2018-03-22T10:41:51.998Z,8.3
2018-03-22T10:43:11.789Z,8
2018-03-22T10:44:31.591Z,8.1
2018-03-22T10:45:53.939Z,8
2018-03-22T10:47:13.739Z,7.9
2018-03-22T10:48:33.537Z,8.1
2018-03-22T10:49:53.361Z,8
2018-03-22T10:51:18.264Z,7.8
2018-03-22T10:52:38.052Z,7.9
2018-03-22T10:54:00.436Z,8.2
2018-03-22T10:55:22.773Z,8.5
2018-03-22T10:56:47.623Z,8.4
2018-03-22T10:58:17.546Z,8.3
2018-03-22T10:59:37.392Z,8.3
2018-03-22T11:00:59.712Z,8.3
2018-03-22T11:02:22.036Z,8.2
2018-03-22T11:03:41.829Z,8.2
2018-03-22T11:05:01.657Z,8.1
2018-03-22T11:06:26.508Z,8.2
2018-03-22T11:07:46.382Z,8.2
2018-03-22T11:09:08.742Z,8.2
2018-03-22T11:10:28.594Z,8.2
2018-03-22T11:11:53.462Z,8.3
2018-03-22T11:13:13.251Z,8.3
2018-03-22T11:14:33.082Z,8.3
2018-03-22T11:15:52.903Z,8.2
2018-03-22T11:17:15.225Z,8.2
2018-03-22T11:18:35.075Z,8.1
2018-03-22T11:19:59.937Z,8.2
2018-03-22T11:21:19.736Z,8.2
2018-03-22T11:22:39.534Z,8.2
2018-03-22T11:24:01.864Z,7.9
2018-03-22T11:25:21.680Z,8
2018-03-22T11:26:41.470Z,8.1
2018-03-22T11:28:18.969Z,8.1
2018-03-22T11:29:38.822Z,8
2018-03-22T11:30:58.622Z,8
2018-03-22T11:32:20.981Z,7.9
2018-03-22T11:33:45.920Z,8
2018-03-22T11:35:05.780Z,8.1
2018-03-22T11:36:28.174Z,8.1
2018-03-22T11:37:48.017Z,8
2018-03-22T11:39:10.430Z,6.8
2018-03-22T11:40:30.235Z,6.5
2018-03-22T11:41:52.577Z,5.5
2018-03-22T11:43:22.525Z,7.8
2018-03-22T11:44:44.851Z,8.1
2018-03-22T11:46:04.650Z,7.9
2018-03-22T11:47:32.043Z,8
2018-03-22T11:48:54.398Z,7.6
2018-03-22T11:50:16.722Z,7.8
2018-03-22T11:51:41.574Z,7.6
2018-03-22T11:53:01.367Z,7.7
2018-03-22T11:54:26.239Z,7.6
2018-03-22T11:55:46.069Z,7.3
2018-03-22T11:57:05.947Z,7.4
2018-03-22T11:58:25.786Z,7.4
2018-03-22T11:59:45.615Z,7.2
2018-03-22T12:01:13.012Z,7.1
2018-03-22T12:02:37.860Z,6.9
2018-03-22T12:03:57.667Z,6.9
2018-03-22T12:05:17.466Z,7.5
2018-03-22T12:06:39.834Z,7.5
2018-03-22T12:08:02.221Z,7.4
2018-03-22T12:09:22.052Z,7.4
2018-03-22T12:10:44.413Z,7.6
2018-03-22T12:12:11.821Z,7.4
2018-03-22T12:13:34.141Z,7.4
2018-03-22T12:14:53.934Z,6.9
2018-03-22T12:16:13.771Z,7.1
2018-03-22T12:17:33.565Z,7.6
2018-03-22T12:18:53.417Z,7.4
2018-03-22T12:20:13.260Z,7.6
2018-03-22T12:21:33.105Z,7.7
2018-03-22T12:22:52.906Z,7.8
2018-03-22T12:24:25.415Z,7.9
2018-03-22T12:25:47.756Z,8
2018-03-22T12:27:12.667Z,7.7
2018-03-22T12:28:32.465Z,7.7
2018-03-22T12:29:57.332Z,7.6
2018-03-22T12:31:27.263Z,7.6
2018-03-22T12:32:49.592Z,7.7
2018-03-22T12:34:09.389Z,7.7
2018-03-22T12:35:29.239Z,7.7
2018-03-22T12:36:51.596Z,7.7
2018-03-22T12:38:21.560Z,7.6
2018-03-22T12:39:41.368Z,7.7
2018-03-22T12:41:06.263Z,7.8
2018-03-22T12:42:31.138Z,7.9
2018-03-22T12:43:58.527Z,7.7
2018-03-22T12:45:20.881Z,7.8
2018-03-22T12:46:48.303Z,8.4
2018-03-22T12:48:08.141Z,8.4
2018-03-22T12:49:38.055Z,8.5
2018-03-22T12:50:57.851Z,8.4
2018-03-22T12:52:17.661Z,8.5
2018-03-22T12:53:45.087Z,8.5
2018-03-22T12:55:10.010Z,8.1
2018-03-22T12:56:29.846Z,8.4
2018-03-22T12:57:54.719Z,8.5
2018-03-22T12:59:14.569Z,8.4
2018-03-22T13:00:36.938Z,8.1
2018-03-22T13:01:56.757Z,8.6
2018-03-22T13:03:16.580Z,8.6
2018-03-22T13:04:36.372Z,9
2018-03-22T13:05:56.213Z,9.1
2018-03-22T13:07:16.041Z,9.6
2018-03-22T13:08:35.876Z,9.6
2018-03-22T13:09:55.718Z,10.6
2018-03-22T13:11:23.121Z,10.6
2018-03-22T13:12:42.958Z,10.7
2018-03-22T13:14:02.779Z,11.2
2018-03-22T13:15:25.147Z,10.8
2018-03-22T13:16:50.096Z,11
2018-03-22T13:18:17.519Z,10.6
2018-03-22T13:19:37.329Z,9.8
2018-03-22T13:20:59.656Z,9.4
2018-03-22T13:22:39.817Z,10.4
2018-03-22T13:24:04.724Z,10
2018-03-22T13:25:27.090Z,10.3
2018-03-22T13:26:51.953Z,10
2018-03-22T13:28:11.787Z,10
2018-03-22T13:29:36.694Z,8.9
2018-03-22T13:30:56.560Z,10.2
2018-03-22T13:32:16.440Z,10.1
2018-03-22T13:33:43.842Z,10.4
2018-03-22T13:35:03.656Z,11.3
2018-03-22T13:36:23.479Z,11.4
2018-03-22T13:37:50.899Z,11.6
2018-03-22T13:39:10.797Z,12.2
2018-03-22T13:40:30.635Z,11.5
2018-03-22T13:41:55.553Z,12
2018-03-22T13:43:15.412Z,11.6
2018-03-22T13:44:35.256Z,11.6
2018-03-22T13:45:57.663Z,11.3
2018-03-22T13:47:17.557Z,10.6
2018-03-22T13:48:39.955Z,10.1
2018-03-22T13:50:04.895Z,10.7
2018-03-22T13:51:29.828Z,10.8
2018-03-22T13:52:49.657Z,10.6
2018-03-22T13:54:12.065Z,10.1
2018-03-22T13:55:36.921Z,9.9
2018-03-22T13:56:56.735Z,9.8
2018-03-22T13:58:16.551Z,8.5
2018-03-22T13:59:41.464Z,9.5
2018-03-22T14:01:01.289Z,9.3
2018-03-22T14:02:21.102Z,9.6
2018-03-22T14:03:40.915Z,9.3
2018-03-22T14:05:03.297Z,9.5
2018-03-22T14:06:23.089Z,9.4
2018-03-22T14:07:42.915Z,9.4
2018-03-22T14:09:02.782Z,9.2
2018-03-22T14:10:30.202Z,9.2
2018-03-22T14:11:50.022Z,8.9
2018-03-22T14:13:12.348Z,9
2018-03-22T14:14:34.704Z,9
2018-03-22T14:15:54.500Z,9.2
2018-03-22T14:17:16.853Z,9.6
2018-03-22T14:18:46.766Z,9.3
2018-03-22T14:20:06.612Z,9.2
2018-03-22T14:21:28.943Z,8.3
2018-03-22T14:22:48.762Z,9.3
2018-03-22T14:24:11.124Z,9.4
2018-03-22T14:25:33.445Z,9.2
2018-03-22T14:26:55.773Z,9
2018-03-22T14:28:18.110Z,8
2018-03-22T14:29:37.911Z,8.1
2018-03-22T14:30:57.718Z,8.6
2018-03-22T14:32:17.539Z,8
2018-03-22T14:33:42.396Z,8.7
2018-03-22T14:35:04.766Z,9
2018-03-22T14:36:24.581Z,9
2018-03-22T14:37:44.375Z,8.9
2018-03-22T14:39:06.764Z,8.8
2018-03-22T14:40:31.615Z,9
2018-03-22T14:41:56.461Z,9.8
2018-03-22T14:43:21.332Z,9.6
2018-03-22T14:44:41.145Z,10.1
2018-03-22T14:46:01.004Z,10
2018-03-22T14:47:20.830Z,10.2
2018-03-22T14:48:43.173Z,10.1
2018-03-22T14:50:05.511Z,10.2
2018-03-22T14:51:32.953Z,10
2018-03-22T14:52:55.346Z,10.2
2018-03-22T14:54:15.188Z,10.3
2018-03-22T14:55:35.037Z,10.1
2018-03-22T14:56:54.878Z,10.4
2018-03-22T14:58:14.703Z,9.8
2018-03-22T14:59:34.546Z,10.1
2018-03-22T15:00:56.923Z,10
2018-03-22T15:02:19.246Z,9.1
2018-03-22T15:03:41.666Z,10.4
2018-03-22T15:05:04.015Z,10.3
2018-03-22T15:06:23.905Z,10
2018-03-22T15:07:43.753Z,10.1
2018-03-22T15:09:03.557Z,9.9
2018-03-22T15:10:23.403Z,9.5
2018-03-22T15:11:43.342Z,10
2018-03-22T15:13:05.688Z,10.1
2018-03-22T15:14:28.060Z,9.6
2018-03-22T15:15:47.872Z,10
2018-03-22T15:17:07.669Z,9.8
2018-03-22T15:18:30.083Z,10.7
2018-03-22T15:19:49.919Z,10.3
2018-03-22T15:21:22.383Z,10.2
2018-03-22T15:22:42.189Z,10.5
2018-03-22T15:24:02.059Z,10.3
2018-03-22T15:25:29.503Z,10.7
2018-03-22T15:26:51.838Z,10.9
2018-03-22T15:28:11.676Z,10.3
2018-03-22T15:29:39.087Z,10.6
2018-03-22T15:30:58.956Z,10.4
2018-03-22T15:32:18.865Z,10.5
2018-03-22T15:33:38.675Z,10.5
2018-03-22T15:35:06.129Z,10.4
2018-03-22T15:36:25.942Z,10.3
2018-03-22T15:37:45.767Z,10.1
2018-03-22T15:39:13.191Z,10.1
2018-03-22T15:40:33.049Z,10.1
2018-03-22T15:41:55.428Z,10.1
2018-03-22T15:43:17.800Z,10
2018-03-22T15:44:37.635Z,9.8
2018-03-22T15:46:10.110Z,9.5
2018-03-22T15:47:32.495Z,8.9
2018-03-22T15:48:54.909Z,8.9
2018-03-22T15:50:14.762Z,8.8
2018-03-22T15:51:34.589Z,8.7
2018-03-22T15:53:09.606Z,8.8
2018-03-22T15:54:29.432Z,8.8
2018-03-22T15:55:51.752Z,8.8
2018-03-22T15:57:11.604Z,9.6
2018-03-22T15:58:31.421Z,10.1
2018-03-22T15:59:51.245Z,10
2018-03-22T16:01:13.598Z,9.8
2018-03-22T16:02:33.401Z,9.7
2018-03-22T16:03:53.200Z,9.6
2018-03-22T16:05:15.574Z,9.7
2018-03-22T16:06:35.368Z,9.5
2018-03-22T16:07:57.694Z,9.5
2018-03-22T16:09:20.073Z,9.9
2018-03-22T16:10:39.950Z,10.4
2018-03-22T16:11:59.846Z,10.2
2018-03-22T16:13:29.843Z,10.2
2018-03-22T16:14:54.765Z,10.1
2018-03-22T16:16:19.670Z,10.3
2018-03-22T16:17:39.547Z,10.2
2018-03-22T16:19:09.512Z,10.5
2018-03-22T16:20:31.906Z,10.7
2018-03-22T16:21:51.728Z,10.9
2018-03-22T16:23:14.166Z,11
2018-03-22T16:24:33.982Z,10.8
2018-03-22T16:25:56.357Z,10.8
2018-03-22T16:27:16.177Z,11
2018-03-22T16:28:35.988Z,11.2
2018-03-22T16:30:00.901Z,11.3
2018-03-22T16:31:23.250Z,11.5
2018-03-22T16:32:45.684Z,11.3
2018-03-22T16:34:05.490Z,11.4
2018-03-22T16:35:27.851Z,11.4
2018-03-22T16:36:47.742Z,11.5
2018-03-22T16:38:07.566Z,11.5
2018-03-22T16:39:27.384Z,11.4
2018-03-22T16:40:49.802Z,11.1
2018-03-22T16:42:09.691Z,11.3
2018-03-22T16:43:34.586Z,11.3
2018-03-22T16:44:54.416Z,11.2
2018-03-22T16:46:16.752Z,11.3
2018-03-22T16:47:39.157Z,11.2
2018-03-22T16:49:01.503Z,11.3
2018-03-22T16:50:23.848Z,11
2018-03-22T16:51:48.790Z,11.1
2018-03-22T16:53:08.680Z,10.8
2018-03-22T16:54:28.526Z,10.9
2018-03-22T16:55:55.937Z,10.9
2018-03-22T16:57:15.747Z,10.8
2018-03-22T16:58:38.122Z,10.5
2018-03-22T17:00:03.036Z,10.3
2018-03-22T17:01:25.385Z,10.1
2018-03-22T17:02:47.723Z,10.2
2018-03-22T17:04:07.517Z,9.7
2018-03-22T17:05:32.408Z,10.2
2018-03-22T17:06:54.776Z,10.1
2018-03-22T17:08:14.640Z,9.8
2018-03-22T17:09:37.018Z,9.9
2018-03-22T17:10:56.810Z,9.8
2018-03-22T17:12:16.657Z,9.7
2018-03-22T17:13:44.077Z,9.7
2018-03-22T17:15:11.456Z,9.6
2018-03-22T17:16:31.255Z,9.7
2018-03-22T17:18:06.279Z,9.7
2018-03-22T17:19:31.189Z,9.8
2018-03-22T17:20:50.999Z,9.8
2018-03-22T17:22:15.881Z,9.8
2018-03-22T17:23:35.668Z,9.7
2018-03-22T17:24:55.487Z,9.5
2018-03-22T17:26:15.282Z,9.6
2018-03-22T17:27:35.076Z,9.5
2018-03-22T17:28:59.936Z,9.4
2018-03-22T17:30:22.294Z,9.3
2018-03-22T17:31:44.643Z,9.3
2018-03-22T17:33:14.583Z,9.4
2018-03-22T17:34:34.435Z,9.5
2018-03-22T17:35:54.258Z,9.4
2018-03-22T17:37:16.618Z,9.3
2018-03-22T17:38:36.413Z,9.3
2018-03-22T17:40:01.317Z,9.3
2018-03-22T17:41:26.178Z,9.2
2018-03-22T17:42:53.626Z,9.3
2018-03-22T17:44:13.460Z,9.4
2018-03-22T17:45:35.833Z,9.6
2018-03-22T17:47:03.272Z,9.5
2018-03-22T17:48:25.591Z,9.5
2018-03-22T17:49:50.457Z,9.6
2018-03-22T17:51:10.305Z,9.5
2018-03-22T17:52:30.136Z,9.3
2018-03-22T17:53:49.930Z,9.2
2018-03-22T17:55:09.784Z,9.5
2018-03-22T17:56:47.332Z,9.5
2018-03-22T17:58:09.668Z,9.3
2018-03-22T17:59:34.549Z,9.5
2018-03-22T18:00:54.372Z,9.7
2018-03-22T18:02:14.196Z,9.4
2018-03-22T18:03:39.115Z,9.3
2018-03-22T18:04:58.944Z,9.5
2018-03-22T18:06:18.772Z,9.4
2018-03-22T18:07:43.711Z,9.4
2018-03-22T18:09:06.034Z,8.8
2018-03-22T18:10:25.827Z,8.8
2018-03-22T18:11:45.617Z,8.6
2018-03-22T18:13:05.429Z,8.6
2018-03-22T18:14:25.263Z,8.5
2018-03-22T18:15:45.066Z,8.4
2018-03-22T18:17:04.853Z,8.8
2018-03-22T18:18:24.648Z,9.2
2018-03-22T18:19:49.525Z,9.4
2018-03-22T18:21:09.364Z,9.4
2018-03-22T18:22:34.271Z,9.6
2018-03-22T18:23:54.107Z,10.1
2018-03-22T18:25:16.465Z,10
2018-03-22T18:26:41.353Z,10.4
2018-03-22T18:28:01.172Z,10.5
2018-03-22T18:29:20.982Z,10.5
2018-03-22T18:30:43.325Z,10.8
2018-03-22T18:32:05.725Z,10.8
2018-03-22T18:33:25.563Z,10.7
2018-03-22T18:34:50.477Z,10.7
2018-03-22T18:36:15.446Z,11.3
2018-03-22T18:37:47.919Z,11.1
2018-03-22T18:39:07.731Z,11.1
2018-03-22T18:40:27.552Z,11.2
2018-03-22T18:41:52.497Z,11.3
2018-03-22T18:43:14.831Z,10.7
2018-03-22T18:44:37.177Z,10.4
2018-03-22T18:46:07.130Z,10.4
2018-03-22T18:47:29.476Z,11
2018-03-22T18:48:56.917Z,11
2018-03-22T18:50:19.287Z,10.9
2018-03-22T18:51:41.664Z,10.7
2018-03-22T18:53:06.538Z,10.8
2018-03-22T18:54:26.379Z,11.2
2018-03-22T18:55:48.746Z,11
2018-03-22T18:57:11.090Z,11
2018-03-22T18:58:35.955Z,10.6